Terminal Aerodrome Forecast
Issued by NWS

Home | Current Version | Previous Version | Text Only | Print | Product List | Glossary On
Versions: 1 2 3 4 5 6 7 8 9 10 11 12 13 14 15 16 17 18 19
000
FTUS41 KRNK 242325
TAFLWB
TAF
KLWB 242325Z 2500/2524 00000KT P6SM FEW250
     FM250900 00000KT 4SM BR SCT010 BKN040
     FM251300 28003KT P6SM SCT020 BKN040
     FM251500 27006KT P6SM FEW040 SCT080=

USA.gov is the U.S. government's official web portal to all federal, state and local government web resources and services.